Nearby METAR Reports

 

KSJC - San Jose, California, USA
Distance from station: NE 9mi, 14km
Updated: Tue, 26-Oct-2021 1:53pm PDT
Mostly cloudy
Mostly cloudy
 Wind from calm
Wind: Calm
Temperature: 64°F , 18°C
Dew Point: 46°F , 8°C
Humidity: 52%
Barometer: 30.21 inHg , 1023 hPa
Clouds: Mostly cloudy
Visibility: 10 miles , 16 km
Cloud details: Few Clouds 4600 ft
Partly cloudy 7000 ft
Mostly cloudy 10000 ft
2021/10/26 20:53 KSJC 262053Z 00000KT 10SM FEW046 SCT070 BKN100 18/08 A3021 RMK AO2 SLP229 T01830078 58007
KRHV - San Jose/Reid, California, USA
Distance from station: ENE 12mi, 19km
Updated: Mon, 25-Oct-2021 4:50pm PDT
NOT Current
Mostly cloudy
Mostly cloudy
 Wind from W
Wind: W 8 mph , 13 km/h
Temperature: 63°F , 17°C
Dew Point: 45°F , 7°C
Humidity: 52%
Barometer: 29.91 inHg , 1012.9 hPa
Clouds: Mostly cloudy
Visibility: 10 miles , 16 km
Cloud details: Mostly cloudy 4000 ft
2021/10/25 23:50 KRHV 252350Z 28007KT 10SM BKN040 17/07 A2991
 
KPAO - Palo Alto, California, USA
Distance from station: NNW 14mi, 23km
Updated: Tue, 26-Oct-2021 1:47pm PDT
Overcast
Overcast
 Wind from varies
Wind: varies 7 mph , 11 km/h
Temperature: 63°F , 17°C
Dew Point: 50°F , 10°C
Humidity: 64%
Barometer: 30.22 inHg , 1023.4 hPa
Clouds: Overcast
Visibility: 10 miles , 16 km
Cloud details: Few Clouds 3000 ft
Overcast 18000 ft
2021/10/26 20:47 KPAO 262047Z VRB06KT 10SM FEW030 OVC180 17/10 A3022
KOAK - Oakland, California, USA
Distance from station: NNW 31mi, 50km
Updated: Tue, 26-Oct-2021 1:53pm PDT
Mostly cloudy
Mostly cloudy
 Wind from SSE
Wind: SSE 6 mph , 9 km/h
Temperature: 64°F , 18°C
Dew Point: 50°F , 10°C
Humidity: 60%
Barometer: 30.22 inHg , 1023.4 hPa
Clouds: Mostly cloudy
Visibility: 10 miles , 16 km
Cloud details: Partly cloudy 3600 ft
Mostly cloudy 6000 ft
Mostly cloudy 9000 ft
2021/10/26 20:53 KOAK 262053Z 16005KT 10SM SCT036 BKN060 BKN090 18/10 A3022 RMK AO2 SLP233 T01780100 58006
 
KSQL - San Carlos Airpo, California, USA
Distance from station: NW 21mi, 34km
Updated: Tue, 26-Oct-2021 1:47pm PDT
Overcast
Overcast
 Wind from varies
Wind: varies 3 mph , 6 km/h
Temperature: 63°F , 17°C
Dew Point: 50°F , 10°C
Humidity: 64%
Barometer: 30.22 inHg , 1023.4 hPa
Clouds: Overcast
Visibility: 10 miles , 16 km
Cloud details: Partly cloudy 3000 ft
Overcast 8000 ft
2021/10/26 20:47 KSQL 262047Z VRB03KT 10SM SCT030 OVC080 17/10 A3022
KSFO - San Francisco, California, USA
Distance from station: NW 30mi, 49km
Updated: Tue, 26-Oct-2021 1:56pm PDT
Mostly cloudy
Mostly cloudy
 Wind from E
Wind: E 8 mph , 13 km/h
Temperature: 63°F , 17°C
Dew Point: 54°F , 12°C
Humidity: 73%
Barometer: 30.20 inHg , 1022.7 hPa
Clouds: Mostly cloudy
Visibility: 10 miles , 16 km
Cloud details: Few Clouds 3400 ft
Mostly cloudy 6000 ft
Mostly cloudy 8000 ft
2021/10/26 20:56 KSFO 262056Z 08007KT 10SM FEW034 BKN060 BKN080 17/12 A3020 RMK AO2 SLP226 T01670117 58008
 
KE16 - San Martin, California, USA
Distance from station: ESE 27mi, 43km
Updated: Tue, 26-Oct-2021 2:35pm PDT
Overcast
Overcast
 Wind from WSW
Wind: WSW 3 mph , 6 km/h
Temperature: 66°F , 19°C
Dew Point: 41°F , 5°C
Humidity: 40%
Barometer: 30.22 inHg , 1023.4 hPa
Clouds: Overcast
Visibility: 10 miles , 16 km
Cloud details: Overcast 7000 ft
2021/10/26 21:35 KE16 262135Z AUTO 25003KT 10SM OVC070 19/05 A3022 RMK AO2 PWINO PNO
KWVI - Watsonville, California, USA
Distance from station: SSE 27mi, 44km
Updated: Tue, 26-Oct-2021 1:53pm PDT
Overcast
Overcast
 Wind from WSW
Wind: WSW 9 mph , 15 km/h
Temperature: 66°F , 19°C
Dew Point: 52°F , 11°C
Humidity: 60%
Barometer: 30.22 inHg , 1023.4 hPa
Clouds: Overcast
Visibility: 10 miles , 16 km
Cloud details: Overcast 6500 ft
2021/10/26 20:53 KWVI 262053Z AUTO 24008KT 10SM OVC065 19/11 A3022 RMK AO2 SLP234 T01890106 58007
 
KHAF - Half Moon Bay, California, USA
Distance from station: WNW 31mi, 50km
Updated: Tue, 26-Oct-2021 2:35pm PDT
Haze, Clear
Haze, Clear
 Wind from SSW
Wind: SSW 9 mph , 15 km/h
Temperature: 61°F , 16°C
Dew Point: 55°F , 13°C
Humidity: 83%
Barometer: 30.22 inHg , 1023.4 hPa
Summary: Haze
Clouds: Clear
Visibility: 4 miles , 6 km
2021/10/26 21:35 KHAF 262135Z AUTO 21008KT 4SM HZ CLR 16/13 A3022 RMK AO2
KHWD - Hayward, California, USA
Distance from station: N 28mi, 44km
Updated: Tue, 26-Oct-2021 1:54pm PDT
Mostly cloudy
Mostly cloudy
 Wind from calm
Wind: Calm
Temperature: 64°F , 18°C
Dew Point: 48°F , 9°C
Humidity: 56%
Barometer: 30.21 inHg , 1023 hPa
Clouds: Mostly cloudy
Visibility: 10 miles , 16 km
Cloud details: Few Clouds 3200 ft
Mostly cloudy 6500 ft
2021/10/26 20:54 KHWD 262054Z 00000KT 10SM FEW032 BKN065 18/09 A3021 RMK AO2 SLP239 T01780094 58006
 
KLVK - Livermore, California, USA
Distance from station: NNE 31mi, 51km
Updated: Tue, 26-Oct-2021 1:53pm PDT
Overcast
Overcast
 Wind from S
Wind: S 6 mph , 9 km/h
Temperature: 63°F , 17°C
Dew Point: 46°F , 8°C
Humidity: 56%
Barometer: 30.20 inHg , 1022.7 hPa
Clouds: Overcast
Visibility: 10 miles , 16 km
Cloud details: Few Clouds 4700 ft
Mostly cloudy 6000 ft
Overcast 7000 ft
2021/10/26 20:53 KLVK 262053Z 18005KT 10SM FEW047 BKN060 OVC070 17/08 A3020 RMK AO2 SLP226 T01720083 58006